sensor_id;sensor_type;location;lat;lon;timestamp;pressure;altitude;pressure_sealevel;temperature;humidity
14818;BME280;7500;57.698;11.986;2022-12-19T00:00:40;102647.91;;;4.98;100.00
14818;BME280;7500;57.698;11.986;2022-12-19T00:03:07;102637.44;;;4.88;100.00
14818;BME280;7500;57.698;11.986;2022-12-19T00:05:35;102640.94;;;4.93;100.00
14818;BME280;7500;57.698;11.986;2022-12-19T00:08:03;102625.22;;;4.82;100.00
14818;BME280;7500;57.698;11.986;2022-12-19T00:10:30;102616.47;;;4.70;100.00
14818;BME280;7500;57.698;11.986;2022-12-19T00:12:57;102621.72;;;4.73;100.00
14818;BME280;7500;57.698;11.986;2022-12-19T00:15:26;102616.47;;;4.76;100.00
14818;BME280;7500;57.698;11.986;2022-12-19T00:17:53;102606.00;;;4.76;100.00
14818;BME280;7500;57.698;11.986;2022-12-19T00:20:19;102596.41;;;4.73;100.00
14818;BME280;7500;57.698;11.986;2022-12-19T00:22:47;102586.81;;;4.71;100.00
14818;BME280;7500;57.698;11.986;2022-12-19T00:25:14;102599.03;;;4.84;100.00
14818;BME280;7500;57.698;11.986;2022-12-19T00:27:41;102582.47;;;4.73;100.00
14818;BME280;7500;57.698;11.986;2022-12-19T00:30:10;102584.19;;;4.65;100.00
14818;BME280;7500;57.698;11.986;2022-12-19T00:32:39;102583.31;;;4.58;100.00
14818;BME280;7500;57.698;11.986;2022-12-19T00:35:06;102581.53;;;4.53;100.00
14818;BME280;7500;57.698;11.986;2022-12-19T00:37:33;102572.84;;;4.60;100.00
14818;BME280;7500;57.698;11.986;2022-12-19T00:40:00;102561.50;;;4.62;100.00
14818;BME280;7500;57.698;11.986;2022-12-19T00:42:27;102560.63;;;4.63;100.00
14818;BME280;7500;57.698;11.986;2022-12-19T00:44:54;102552.75;;;4.50;100.00
14818;BME280;7500;57.698;11.986;2022-12-19T00:47:21;102496.91;;;4.15;100.00
14818;BME280;7500;57.698;11.986;2022-12-19T00:49:49;102535.34;;;4.50;100.00
14818;BME280;7500;57.698;11.986;2022-12-19T00:52:16;102469.03;;;4.14;100.00
14818;BME280;7500;57.698;11.986;2022-12-19T00:54:43;102537.13;;;4.68;100.00
14818;BME280;7500;57.698;11.986;2022-12-19T00:57:10;102524.03;;;4.62;100.00
14818;BME280;7500;57.698;11.986;2022-12-19T00:59:37;102514.44;;;4.58;100.00
14818;BME280;7500;57.698;11.986;2022-12-19T01:02:04;102523.13;;;4.57;100.00
14818;BME280;7500;57.698;11.986;2022-12-19T01:04:31;102517.94;;;4.63;100.00
14818;BME280;7500;57.698;11.986;2022-12-19T01:06:59;102503.09;;;4.59;100.00
14818;BME280;7500;57.698;11.986;2022-12-19T01:09:26;102517.03;;;4.61;100.00
14818;BME280;7500;57.698;11.986;2022-12-19T01:11:53;102523.13;;;4.61;100.00
14818;BME280;7500;57.698;11.986;2022-12-19T01:14:37;102514.44;;;4.58;100.00
14818;BME280;7500;57.698;11.986;2022-12-19T01:17:04;102505.69;;;4.60;100.00
14818;BME280;7500;57.698;11.986;2022-12-19T01:19:31;102493.50;;;4.56;100.00
14818;BME280;7500;57.698;11.986;2022-12-19T01:21:59;102491.75;;;4.52;100.00
14818;BME280;7500;57.698;11.986;2022-12-19T01:24:26;102487.38;;;4.43;100.00
14818;BME280;7500;57.698;11.986;2022-12-19T01:26:53;102482.16;;;4.41;100.00
14818;BME280;7500;57.698;11.986;2022-12-19T01:29:20;102476.03;;;4.45;100.00
14818;BME280;7500;57.698;11.986;2022-12-19T01:31:47;102470.84;;;4.39;100.00
14818;BME280;7500;57.698;11.986;2022-12-19T01:34:14;102461.25;;;4.38;100.00
14818;BME280;7500;57.698;11.986;2022-12-19T01:36:40;102452.53;;;4.33;100.00
14818;BME280;7500;57.698;11.986;2022-12-19T01:39:09;102452.50;;;4.30;100.00
14818;BME280;7500;57.698;11.986;2022-12-19T01:41:36;102441.19;;;4.34;100.00
14818;BME280;7500;57.698;11.986;2022-12-19T01:44:04;102398.50;;;4.25;100.00
14818;BME280;7500;57.698;11.986;2022-12-19T01:46:34;102428.97;;;4.41;100.00
14818;BME280;7500;57.698;11.986;2022-12-19T01:49:02;102422.00;;;4.40;100.00
14818;BME280;7500;57.698;11.986;2022-12-19T01:51:33;102416.78;;;4.48;100.00
14818;BME280;7500;57.698;11.986;2022-12-19T01:54:05;102406.31;;;4.43;100.00
14818;BME280;7500;57.698;11.986;2022-12-19T01:56:37;102398.47;;;4.26;100.00
14818;BME280;7500;57.698;11.986;2022-12-19T01:59:08;102377.56;;;4.35;100.00
14818;BME280;7500;57.698;11.986;2022-12-19T02:01:36;102384.53;;;4.32;100.00
14818;BME280;7500;57.698;11.986;2022-12-19T02:04:04;102376.69;;;4.30;100.00
14818;BME280;7500;57.698;11.986;2022-12-19T02:06:33;102378.44;;;4.39;100.00
14818;BME280;7500;57.698;11.986;2022-12-19T02:09:00;102377.56;;;4.41;100.00
14818;BME280;7500;57.698;11.986;2022-12-19T02:11:27;102376.69;;;4.33;100.00
14818;BME280;7500;57.698;11.986;2022-12-19T02:13:56;102374.94;;;4.23;100.00
14818;BME280;7500;57.698;11.986;2022-12-19T02:16:30;102363.63;;;4.23;100.00
14818;BME280;7500;57.698;11.986;2022-12-19T02:19:14;102366.22;;;4.35;100.00
14818;BME280;7500;57.698;11.986;2022-12-19T02:21:52;102301.78;;;3.80;100.00
14818;BME280;7500;57.698;11.986;2022-12-19T02:24:53;102365.38;;;4.22;100.00
14818;BME280;7500;57.698;11.986;2022-12-19T02:30:47;102362.75;;;4.42;100.00
14818;BME280;7500;57.698;11.986;2022-12-19T02:33:25;102358.38;;;4.45;100.00
14818;BME280;7500;57.698;11.986;2022-12-19T02:35:58;102362.75;;;4.50;100.00
14818;BME280;7500;57.698;11.986;2022-12-19T02:38:35;102351.38;;;4.59;100.00
14818;BME280;7500;57.698;11.986;2022-12-19T02:41:05;102338.31;;;4.50;100.00
14818;BME280;7500;57.698;11.986;2022-12-19T02:43:38;102328.72;;;4.46;100.00
14818;BME280;7500;57.698;11.986;2022-12-19T02:46:10;102327.88;;;4.34;100.00
14818;BME280;7500;57.698;11.986;2022-12-19T02:48:37;102256.50;;;3.97;100.00
14818;BME280;7500;57.698;11.986;2022-12-19T02:51:06;102327.00;;;4.48;100.00
14818;BME280;7500;57.698;11.986;2022-12-19T02:53:34;102326.13;;;4.43;100.00
14818;BME280;7500;57.698;11.986;2022-12-19T02:56:14;102324.38;;;4.49;100.00
14818;BME280;7500;57.698;11.986;2022-12-19T02:58:49;102315.66;;;4.43;100.00
14818;BME280;7500;57.698;11.986;2022-12-19T03:01:34;102319.16;;;4.41;100.00
14818;BME280;7500;57.698;11.986;2022-12-19T03:04:13;102316.53;;;4.48;100.00
14818;BME280;7500;57.698;11.986;2022-12-19T03:06:46;102306.94;;;4.47;100.00
14818;BME280;7500;57.698;11.986;2022-12-19T03:09:18;102314.81;;;4.41;100.00
14818;BME280;7500;57.698;11.986;2022-12-19T03:11:49;102310.44;;;4.47;100.00
14818;BME280;7500;57.698;11.986;2022-12-19T03:14:21;102295.59;;;4.51;100.00
14818;BME280;7500;57.698;11.986;2022-12-19T03:16:49;102294.72;;;4.52;100.00
14818;BME280;7500;57.698;11.986;2022-12-19T03:19:16;102293.00;;;4.52;100.00
14818;BME280;7500;57.698;11.986;2022-12-19T03:21:44;102286.91;;;4.43;100.00
14818;BME280;7500;57.698;11.986;2022-12-19T03:24:15;102275.59;;;4.40;100.00
14818;BME280;7500;57.698;11.986;2022-12-19T03:26:46;102279.94;;;4.46;100.00
14818;BME280;7500;57.698;11.986;2022-12-19T03:29:20;102270.38;;;4.35;100.00
14818;BME280;7500;57.698;11.986;2022-12-19T03:31:50;102259.88;;;4.48;100.00
14818;BME280;7500;57.698;11.986;2022-12-19T03:34:20;102243.31;;;4.58;100.00
14818;BME280;7500;57.698;11.986;2022-12-19T03:36:53;102243.31;;;4.46;100.00
14818;BME280;7500;57.698;11.986;2022-12-19T03:39:23;102241.53;;;4.59;100.00
14818;BME280;7500;57.698;11.986;2022-12-19T03:41:51;102231.09;;;4.50;100.00
14818;BME280;7500;57.698;11.986;2022-12-19T03:44:38;102217.16;;;4.52;100.00
14818;BME280;7500;57.698;11.986;2022-12-19T03:47:12;102225.00;;;4.55;100.00
14818;BME280;7500;57.698;11.986;2022-12-19T03:49:41;102211.94;;;4.46;100.00
14818;BME280;7500;57.698;11.986;2022-12-19T03:52:18;102214.56;;;4.49;100.00
14818;BME280;7500;57.698;11.986;2022-12-19T03:54:53;102199.72;;;4.50;100.00
14818;BME280;7500;57.698;11.986;2022-12-19T03:57:26;102191.06;;;4.39;100.00
14818;BME280;7500;57.698;11.986;2022-12-19T03:59:57;102190.16;;;4.43;100.00
14818;BME280;7500;57.698;11.986;2022-12-19T04:02:28;102202.28;;;4.60;100.00
14818;BME280;7500;57.698;11.986;2022-12-19T04:04:58;102203.16;;;4.64;100.00
14818;BME280;7500;57.698;11.986;2022-12-19T04:07:28;102191.88;;;4.57;100.00
14818;BME280;7500;57.698;11.986;2022-12-19T04:09:56;102201.47;;;4.48;100.00
14818;BME280;7500;57.698;11.986;2022-12-19T04:12:29;102197.97;;;4.55;100.00
14818;BME280;7500;57.698;11.986;2022-12-19T04:14:57;102184.84;;;4.65;100.00
14818;BME280;7500;57.698;11.986;2022-12-19T04:17:32;102190.94;;;4.69;100.00
14818;BME280;7500;57.698;11.986;2022-12-19T04:20:04;102191.81;;;4.68;100.00
14818;BME280;7500;57.698;11.986;2022-12-19T04:22:34;102183.13;;;4.60;100.00
14818;BME280;7500;57.698;11.986;2022-12-19T04:25:04;102181.47;;;4.43;100.00
14818;BME280;7500;57.698;11.986;2022-12-19T04:27:34;102172.78;;;4.36;100.00
14818;BME280;7500;57.698;11.986;2022-12-19T04:30:03;102174.53;;;4.31;100.00
14818;BME280;7500;57.698;11.986;2022-12-19T04:32:34;102166.69;;;4.25;100.00
14818;BME280;7500;57.698;11.986;2022-12-19T04:35:02;102165.84;;;4.23;100.00
14818;BME280;7500;57.698;11.986;2022-12-19T04:37:30;102172.78;;;4.30;100.00
14818;BME280;7500;57.698;11.986;2022-12-19T04:39:57;102152.75;;;4.29;100.00
14818;BME280;7500;57.698;11.986;2022-12-19T04:42:25;102157.09;;;4.29;100.00
14818;BME280;7500;57.698;11.986;2022-12-19T04:44:51;102159.75;;;4.09;100.00
14818;BME280;7500;57.698;11.986;2022-12-19T04:47:18;102155.41;;;4.16;100.00
14818;BME280;7500;57.698;11.986;2022-12-19T04:49:47;102153.66;;;4.21;100.00
14818;BME280;7500;57.698;11.986;2022-12-19T04:52:14;102145.81;;;4.16;100.00
14818;BME280;7500;57.698;11.986;2022-12-19T04:54:41;102149.31;;;4.20;100.00
14818;BME280;7500;57.698;11.986;2022-12-19T04:57:08;102136.25;;;4.20;100.00
14818;BME280;7500;57.698;11.986;2022-12-19T04:59:35;102148.44;;;4.18;100.00
14818;BME280;7500;57.698;11.986;2022-12-19T05:02:01;102134.53;;;4.07;100.00
14818;BME280;7500;57.698;11.986;2022-12-19T05:04:28;102137.16;;;4.05;100.00
14818;BME280;7500;57.698;11.986;2022-12-19T05:06:57;102129.34;;;3.99;100.00
14818;BME280;7500;57.698;11.986;2022-12-19T05:09:24;102131.03;;;4.05;100.00
14818;BME280;7500;57.698;11.986;2022-12-19T05:11:51;102131.94;;;4.01;100.00
14818;BME280;7500;57.698;11.986;2022-12-19T05:14:18;102120.59;;;4.06;100.00
14818;BME280;7500;57.698;11.986;2022-12-19T05:16:45;102115.41;;;3.94;100.00
14818;BME280;7500;57.698;11.986;2022-12-19T05:19:12;102117.97;;;4.08;100.00
14818;BME280;7500;57.698;11.986;2022-12-19T05:21:39;102113.56;;;4.20;100.00
14818;BME280;7500;57.698;11.986;2022-12-19T05:24:08;102120.56;;;4.20;100.00
14818;BME280;7500;57.698;11.986;2022-12-19T05:26:35;102117.94;;;4.18;100.00
14818;BME280;7500;57.698;11.986;2022-12-19T05:29:02;102114.50;;;3.97;100.00
14818;BME280;7500;57.698;11.986;2022-12-19T05:31:29;102109.31;;;3.95;100.00
14818;BME280;7500;57.698;11.986;2022-12-19T05:33:55;102110.19;;;3.85;100.00
14818;BME280;7500;57.698;11.986;2022-12-19T05:36:22;102104.97;;;3.88;100.00
14818;BME280;7500;57.698;11.986;2022-12-19T05:38:49;102109.28;;;4.01;100.00
14818;BME280;7500;57.698;11.986;2022-12-19T05:41:19;102091.00;;;4.04;100.00
14818;BME280;7500;57.698;11.986;2022-12-19T05:43:49;102102.38;;;3.90;100.00
14818;BME280;7500;57.698;11.986;2022-12-19T05:46:17;102092.75;;;3.92;100.00
14818;BME280;7500;57.698;11.986;2022-12-19T05:48:44;102085.84;;;3.82;100.00
14818;BME280;7500;57.698;11.986;2022-12-19T05:51:11;102080.59;;;3.77;100.00
14818;BME280;7500;57.698;11.986;2022-12-19T05:53:39;102053.63;;;3.75;100.00
14818;BME280;7500;57.698;11.986;2022-12-19T05:56:07;102059.75;;;3.73;100.00
14818;BME280;7500;57.698;11.986;2022-12-19T05:58:36;102058.84;;;3.78;100.00
14818;BME280;7500;57.698;11.986;2022-12-19T06:01:04;102052.72;;;3.91;100.00
14818;BME280;7500;57.698;11.986;2022-12-19T06:03:31;102044.97;;;3.73;100.00
14818;BME280;7500;57.698;11.986;2022-12-19T06:06:01;102043.16;;;3.81;100.00
14818;BME280;7500;57.698;11.986;2022-12-19T06:08:28;102044.00;;;3.89;100.00
14818;BME280;7500;57.698;11.986;2022-12-19T06:10:57;102046.66;;;3.79;100.00
14818;BME280;7500;57.698;11.986;2022-12-19T06:13:24;102043.16;;;3.78;100.00
14818;BME280;7500;57.698;11.986;2022-12-19T06:15:57;102037.06;;;3.85;100.00
14818;BME280;7500;57.698;11.986;2022-12-19T06:18:27;102036.16;;;3.98;100.00
14818;BME280;7500;57.698;11.986;2022-12-19T06:20:57;102054.41;;;4.04;100.00
14818;BME280;7500;57.698;11.986;2022-12-19T06:23:25;102041.31;;;4.09;100.00
14818;BME280;7500;57.698;11.986;2022-12-19T06:25:55;102050.00;;;4.17;100.00
14818;BME280;7500;57.698;11.986;2022-12-19T06:28:22;102055.25;;;4.09;100.00
14818;BME280;7500;57.698;11.986;2022-12-19T06:30:49;102038.75;;;4.04;100.00
14818;BME280;7500;57.698;11.986;2022-12-19T06:33:17;102042.19;;;4.05;100.00
14818;BME280;7500;57.698;11.986;2022-12-19T06:35:45;102034.38;;;4.05;100.00
14818;BME280;7500;57.698;11.986;2022-12-19T06:38:12;102047.44;;;4.06;100.00
14818;BME280;7500;57.698;11.986;2022-12-19T06:40:41;102051.72;;;4.19;100.00
14818;BME280;7500;57.698;11.986;2022-12-19T06:43:25;102046.44;;;4.31;100.00
14818;BME280;7500;57.698;11.986;2022-12-19T06:45:52;102048.16;;;4.35;100.00
14818;BME280;7500;57.698;11.986;2022-12-19T06:48:21;102049.03;;;4.33;100.00
14818;BME280;7500;57.698;11.986;2022-12-19T06:50:48;102035.97;;;4.31;100.00
14818;BME280;7500;57.698;11.986;2022-12-19T06:53:19;102042.06;;;4.36;100.00
14818;BME280;7500;57.698;11.986;2022-12-19T06:55:46;102036.81;;;4.39;100.00
14818;BME280;7500;57.698;11.986;2022-12-19T06:58:14;102022.91;;;4.34;100.00
14818;BME280;7500;57.698;11.986;2022-12-19T07:00:41;102030.78;;;4.25;100.00
14818;BME280;7500;57.698;11.986;2022-12-19T07:03:10;102023.78;;;4.30;100.00
14818;BME280;7500;57.698;11.986;2022-12-19T07:05:40;102010.66;;;4.38;100.00
14818;BME280;7500;57.698;11.986;2022-12-19T07:08:08;102013.22;;;4.42;100.00
14818;BME280;7500;57.698;11.986;2022-12-19T07:10:35;102003.63;;;4.48;100.00
14818;BME280;7500;57.698;11.986;2022-12-19T07:13:02;101994.09;;;4.39;100.00
14818;BME280;7500;57.698;11.986;2022-12-19T07:15:30;101993.19;;;4.44;100.00
14818;BME280;7500;57.698;11.986;2022-12-19T07:18:00;101981.06;;;4.37;100.00
14818;BME280;7500;57.698;11.986;2022-12-19T07:20:28;101989.75;;;4.35;100.00
14818;BME280;7500;57.698;11.986;2022-12-19T07:22:58;101986.19;;;4.49;100.00
14818;BME280;7500;57.698;11.986;2022-12-19T07:25:25;101989.75;;;4.39;100.00
14818;BME280;7500;57.698;11.986;2022-12-19T07:27:52;101985.41;;;4.35;100.00
14818;BME280;7500;57.698;11.986;2022-12-19T07:30:19;102007.13;;;4.44;100.00
14818;BME280;7500;57.698;11.986;2022-12-19T07:32:46;101986.25;;;4.40;100.00
14818;BME280;7500;57.698;11.986;2022-12-19T07:35:13;101989.88;;;4.18;100.00
14818;BME280;7500;57.698;11.986;2022-12-19T07:37:41;101981.94;;;4.33;100.00
14818;BME280;7500;57.698;11.986;2022-12-19T07:40:10;101980.19;;;4.35;100.00
14818;BME280;7500;57.698;11.986;2022-12-19T07:42:37;101984.47;;;4.43;100.00
14818;BME280;7500;57.698;11.986;2022-12-19T07:45:05;101980.09;;;4.47;100.00
14818;BME280;7500;57.698;11.986;2022-12-19T07:47:32;101964.34;;;4.53;100.00
14818;BME280;7500;57.698;11.986;2022-12-19T07:49:59;101954.03;;;4.38;100.00
14818;BME280;7500;57.698;11.986;2022-12-19T07:52:26;101957.44;;;4.43;100.00
14818;BME280;7500;57.698;11.986;2022-12-19T07:54:53;101957.50;;;4.40;100.00
14818;BME280;7500;57.698;11.986;2022-12-19T07:57:22;101960.03;;;4.46;100.00
14818;BME280;7500;57.698;11.986;2022-12-19T07:59:49;101940.03;;;4.42;100.00
14818;BME280;7500;57.698;11.986;2022-12-19T08:02:15;101946.19;;;4.38;100.00
14818;BME280;7500;57.698;11.986;2022-12-19T08:04:42;101927.88;;;4.37;100.00
14818;BME280;7500;57.698;11.986;2022-12-19T08:07:09;101926.94;;;4.45;100.00
14818;BME280;7500;57.698;11.986;2022-12-19T08:09:37;101914.81;;;4.37;100.00
14818;BME280;7500;57.698;11.986;2022-12-19T08:12:04;101914.06;;;4.21;100.00
14818;BME280;7500;57.698;11.986;2022-12-19T08:14:32;101914.06;;;4.18;100.00
14818;BME280;7500;57.698;11.986;2022-12-19T08:16:59;101908.91;;;4.11;100.00
14818;BME280;7500;57.698;11.986;2022-12-19T08:19:26;101903.63;;;4.15;100.00
14818;BME280;7500;57.698;11.986;2022-12-19T08:21:53;101905.34;;;4.22;100.00
14818;BME280;7500;57.698;11.986;2022-12-19T08:24:20;101909.66;;;4.26;100.00
14818;BME280;7500;57.698;11.986;2022-12-19T08:26:47;101824.72;;;3.70;100.00
14818;BME280;7500;57.698;11.986;2022-12-19T08:29:14;101907.06;;;4.26;100.00
14818;BME280;7500;57.698;11.986;2022-12-19T08:31:43;101901.88;;;4.20;100.00
14818;BME280;7500;57.698;11.986;2022-12-19T08:34:10;101890.50;;;4.24;100.00
14818;BME280;7500;57.698;11.986;2022-12-19T08:36:37;101886.97;;;4.34;100.00
14818;BME280;7500;57.698;11.986;2022-12-19T08:39:04;101893.91;;;4.38;100.00
14818;BME280;7500;57.698;11.986;2022-12-19T08:41:31;101889.44;;;4.46;100.00
14818;BME280;7500;57.698;11.986;2022-12-19T08:43:58;101888.63;;;4.43;100.00
14818;BME280;7500;57.698;11.986;2022-12-19T08:46:26;101896.44;;;4.45;100.00
14818;BME280;7500;57.698;11.986;2022-12-19T08:48:55;101876.47;;;4.36;100.00
14818;BME280;7500;57.698;11.986;2022-12-19T08:51:22;101850.50;;;4.18;100.00
14818;BME280;7500;57.698;11.986;2022-12-19T08:53:50;101873.06;;;4.26;100.00
14818;BME280;7500;57.698;11.986;2022-12-19T08:56:18;101873.06;;;4.28;100.00
14818;BME280;7500;57.698;11.986;2022-12-19T08:58:46;101869.59;;;4.27;100.00
14818;BME280;7500;57.698;11.986;2022-12-19T09:01:15;101866.03;;;4.37;100.00
14818;BME280;7500;57.698;11.986;2022-12-19T09:03:43;101873.78;;;4.44;100.00
14818;BME280;7500;57.698;11.986;2022-12-19T09:06:12;101863.31;;;4.46;100.00
14818;BME280;7500;57.698;11.986;2022-12-19T09:08:40;101869.38;;;4.48;100.00
14818;BME280;7500;57.698;11.986;2022-12-19T09:11:10;101885.09;;;4.48;100.00
14818;BME280;7500;57.698;11.986;2022-12-19T09:13:38;101873.72;;;4.53;100.00
14818;BME280;7500;57.698;11.986;2022-12-19T09:16:07;101865.00;;;4.53;100.00
14818;BME280;7500;57.698;11.986;2022-12-19T09:18:36;101863.28;;;4.50;100.00
14818;BME280;7500;57.698;11.986;2022-12-19T09:21:04;101843.38;;;4.36;100.00
14818;BME280;7500;57.698;11.986;2022-12-19T09:23:32;101843.38;;;4.35;100.00
14818;BME280;7500;57.698;11.986;2022-12-19T09:26:02;101858.03;;;4.52;100.00
14818;BME280;7500;57.698;11.986;2022-12-19T09:28:29;101838.03;;;4.45;100.00
14818;BME280;7500;57.698;11.986;2022-12-19T09:30:58;101831.97;;;4.44;100.00
14818;BME280;7500;57.698;11.986;2022-12-19T09:33:26;101828.44;;;4.47;100.00
14818;BME280;7500;57.698;11.986;2022-12-19T09:35:54;101824.88;;;4.54;100.00
14818;BME280;7500;57.698;11.986;2022-12-19T09:38:23;101825.69;;;4.60;100.00
14818;BME280;7500;57.698;11.986;2022-12-19T09:41:08;101816.03;;;4.67;100.00
14818;BME280;7500;57.698;11.986;2022-12-19T09:43:51;101817.75;;;4.71;100.00
14818;BME280;7500;57.698;11.986;2022-12-19T09:46:23;101811.72;;;4.61;100.00
14818;BME280;7500;57.698;11.986;2022-12-19T09:48:54;101808.19;;;4.67;100.00
14818;BME280;7500;57.698;11.986;2022-12-19T09:51:29;101801.22;;;4.64;100.00
14818;BME280;7500;57.698;11.986;2022-12-19T09:54:03;101806.50;;;4.63;100.00
14818;BME280;7500;57.698;11.986;2022-12-19T09:56:36;101810.97;;;4.53;100.00
14818;BME280;7500;57.698;11.986;2022-12-19T09:59:12;101806.44;;;4.69;100.00
14818;BME280;7500;57.698;11.986;2022-12-19T10:01:49;101806.50;;;4.63;100.00
14818;BME280;7500;57.698;11.986;2022-12-19T10:04:22;101805.47;;;4.76;100.00
14818;BME280;7500;57.698;11.986;2022-12-19T10:06:51;101792.31;;;4.82;100.00
14818;BME280;7500;57.698;11.986;2022-12-19T10:09:19;101790.69;;;4.75;100.00
14818;BME280;7500;57.698;11.986;2022-12-19T10:12:00;101782.88;;;4.72;100.00
14818;BME280;7500;57.698;11.986;2022-12-19T10:14:44;101772.41;;;4.72;100.00
14818;BME280;7500;57.698;11.986;2022-12-19T10:17:23;101776.75;;;4.73;100.00
14818;BME280;7500;57.698;11.986;2022-12-19T10:20:11;101765.28;;;4.83;100.00
14818;BME280;7500;57.698;11.986;2022-12-19T10:22:50;101758.22;;;4.91;100.00
14818;BME280;7500;57.698;11.986;2022-12-19T10:25:28;101753.97;;;4.81;100.00
14818;BME280;7500;57.698;11.986;2022-12-19T10:28:11;101752.53;;;4.57;100.00
14818;BME280;7500;57.698;11.986;2022-12-19T10:30:49;101748.94;;;4.64;100.00
14818;BME280;7500;57.698;11.986;2022-12-19T10:33:23;101742.66;;;4.79;100.00
14818;BME280;7500;57.698;11.986;2022-12-19T10:35:54;101738.38;;;4.75;100.00
14818;BME280;7500;57.698;11.986;2022-12-19T10:38:27;101721.94;;;4.64;100.00
14818;BME280;7500;57.698;11.986;2022-12-19T10:41:09;101737.56;;;4.70;100.00
14818;BME280;7500;57.698;11.986;2022-12-19T10:43:46;101734.97;;;4.65;100.00
14818;BME280;7500;57.698;11.986;2022-12-19T10:46:20;101736.78;;;4.62;100.00
14818;BME280;7500;57.698;11.986;2022-12-19T10:48:50;101654.56;;;4.12;100.00
14818;BME280;7500;57.698;11.986;2022-12-19T10:51:22;101726.47;;;4.48;100.00
14818;BME280;7500;57.698;11.986;2022-12-19T10:53:53;101723.00;;;4.46;100.00
14818;BME280;7500;57.698;11.986;2022-12-19T10:56:23;101722.19;;;4.42;100.00
14818;BME280;7500;57.698;11.986;2022-12-19T10:58:53;101721.19;;;4.54;100.00
14818;BME280;7500;57.698;11.986;2022-12-19T11:01:25;101716.78;;;4.55;100.00
14818;BME280;7500;57.698;11.986;2022-12-19T11:04:12;101721.19;;;4.53;100.00
14818;BME280;7500;57.698;11.986;2022-12-19T11:07:04;101708.88;;;4.59;100.00
14818;BME280;7500;57.698;11.986;2022-12-19T11:09:36;101721.16;;;4.56;100.00
14818;BME280;7500;57.698;11.986;2022-12-19T11:12:11;101709.72;;;4.63;100.00
14818;BME280;7500;57.698;11.986;2022-12-19T11:14:41;101658.72;;;4.28;100.00
14818;BME280;7500;57.698;11.986;2022-12-19T11:17:25;101698.50;;;4.55;100.00
14818;BME280;7500;57.698;11.986;2022-12-19T11:19:52;101694.19;;;4.51;100.00
14818;BME280;7500;57.698;11.986;2022-12-19T11:22:23;101695.09;;;4.48;100.00
14818;BME280;7500;57.698;11.986;2022-12-19T11:24:53;101680.31;;;4.43;100.00
14818;BME280;7500;57.698;11.986;2022-12-19T11:27:40;101673.59;;;4.24;100.00
14818;BME280;7500;57.698;11.986;2022-12-19T11:30:21;101670.06;;;4.28;100.00
14818;BME280;7500;57.698;11.986;2022-12-19T11:33:07;101661.41;;;4.25;100.00
14818;BME280;7500;57.698;11.986;2022-12-19T11:35:45;101655.25;;;4.26;100.00
14818;BME280;7500;57.698;11.986;2022-12-19T11:38:16;101643.03;;;4.28;100.00
14818;BME280;7500;57.698;11.986;2022-12-19T11:40:47;101637.91;;;4.22;100.00
14818;BME280;7500;57.698;11.986;2022-12-19T11:43:21;101635.19;;;4.29;100.00
14818;BME280;7500;57.698;11.986;2022-12-19T11:45:57;101633.41;;;4.34;100.00
14818;BME280;7500;57.698;11.986;2022-12-19T11:48:33;101625.59;;;4.30;100.00
14818;BME280;7500;57.698;11.986;2022-12-19T11:51:06;101622.94;;;4.33;100.00
14818;BME280;7500;57.698;11.986;2022-12-19T11:53:46;101625.41;;;4.43;100.00
14818;BME280;7500;57.698;11.986;2022-12-19T11:56:15;101586.59;;;4.15;100.00
14818;BME280;7500;57.698;11.986;2022-12-19T11:58:48;101619.47;;;4.32;100.00
14818;BME280;7500;57.698;11.986;2022-12-19T12:01:25;101615.19;;;4.27;100.00
14818;BME280;7500;57.698;11.986;2022-12-19T12:04:13;101614.28;;;4.29;100.00
14818;BME280;7500;57.698;11.986;2022-12-19T12:06:49;101601.19;;;4.32;100.00
14818;BME280;7500;57.698;11.986;2022-12-19T12:09:22;101604.56;;;4.40;100.00
14818;BME280;7500;57.698;11.986;2022-12-19T12:11:57;101607.28;;;4.31;100.00
14818;BME280;7500;57.698;11.986;2022-12-19T12:14:33;101592.34;;;4.41;100.00
14818;BME280;7500;57.698;11.986;2022-12-19T12:17:34;101590.47;;;4.51;100.00
14818;BME280;7500;57.698;11.986;2022-12-19T12:20:18;101600.13;;;4.46;100.00
14818;BME280;7500;57.698;11.986;2022-12-19T12:23:05;101583.56;;;4.47;100.00
14818;BME280;7500;57.698;11.986;2022-12-19T12:25:45;101588.69;;;4.53;100.00
14818;BME280;7500;57.698;11.986;2022-12-19T12:28:42;101582.56;;;4.56;100.00
14818;BME280;7500;57.698;11.986;2022-12-19T12:31:26;101564.28;;;4.53;100.00
14818;BME280;7500;57.698;11.986;2022-12-19T12:34:03;101578.25;;;4.53;100.00
14818;BME280;7500;57.698;11.986;2022-12-19T12:36:39;101565.91;;;4.61;100.00
14818;BME280;7500;57.698;11.986;2022-12-19T12:39:12;101523.13;;;4.67;100.00
14818;BME280;7500;57.698;11.986;2022-12-19T12:41:52;101539.28;;;4.93;100.00
14818;BME280;7500;57.698;11.986;2022-12-19T12:44:34;101520.81;;;4.47;100.00
14818;BME280;7500;57.698;11.986;2022-12-19T12:47:09;101539.06;;;4.50;100.00
14818;BME280;7500;57.698;11.986;2022-12-19T12:49:43;101538.34;;;4.40;100.00
14818;BME280;7500;57.698;11.986;2022-12-19T12:52:14;101545.09;;;4.54;100.00
14818;BME280;7500;57.698;11.986;2022-12-19T12:54:45;101542.38;;;4.63;100.00
14818;BME280;7500;57.698;11.986;2022-12-19T12:57:18;101544.22;;;4.55;100.00
14818;BME280;7500;57.698;11.986;2022-12-19T12:59:46;101541.34;;;4.73;100.00
14818;BME280;7500;57.698;11.986;2022-12-19T13:02:16;101531.78;;;4.72;100.00
14818;BME280;7500;57.698;11.986;2022-12-19T13:04:58;101522.28;;;4.65;100.00
14818;BME280;7500;57.698;11.986;2022-12-19T13:07:29;101515.25;;;4.68;100.00
14818;BME280;7500;57.698;11.986;2022-12-19T13:10:13;101554.34;;;4.76;100.00
14818;BME280;7500;57.698;11.986;2022-12-19T13:12:53;101563.16;;;4.70;100.00